sensor_id;sensor_type;location;lat;lon;timestamp;P1;durP1;ratioP1;P2;durP2;ratioP2
11018;SDS011;5563;52.296;6.806;2023-08-07T00:00:43;5.72;;;4.65;;
11018;SDS011;5563;52.296;6.806;2023-08-07T00:03:10;6.72;;;4.47;;
11018;SDS011;5563;52.296;6.806;2023-08-07T00:05:45;4.97;;;4.20;;
11018;SDS011;5563;52.296;6.806;2023-08-07T00:08:12;4.53;;;3.95;;
11018;SDS011;5563;52.296;6.806;2023-08-07T00:10:46;4.82;;;3.80;;
11018;SDS011;5563;52.296;6.806;2023-08-07T00:13:14;6.35;;;4.30;;
11018;SDS011;5563;52.296;6.806;2023-08-07T00:15:40;5.60;;;4.47;;
11018;SDS011;5563;52.296;6.806;2023-08-07T00:18:14;6.43;;;5.05;;
11018;SDS011;5563;52.296;6.806;2023-08-07T00:20:47;7.40;;;5.47;;
11018;SDS011;5563;52.296;6.806;2023-08-07T00:23:14;5.72;;;5.15;;
11018;SDS011;5563;52.296;6.806;2023-08-07T00:25:47;7.28;;;5.55;;
11018;SDS011;5563;52.296;6.806;2023-08-07T00:28:13;6.70;;;5.47;;
11018;SDS011;5563;52.296;6.806;2023-08-07T00:30:54;6.57;;;5.40;;
11018;SDS011;5563;52.296;6.806;2023-08-07T00:33:27;6.63;;;5.72;;
11018;SDS011;5563;52.296;6.806;2023-08-07T00:35:54;7.97;;;6.13;;
11018;SDS011;5563;52.296;6.806;2023-08-07T00:38:27;11.43;;;6.80;;
11018;SDS011;5563;52.296;6.806;2023-08-07T00:40:53;8.63;;;5.95;;
11018;SDS011;5563;52.296;6.806;2023-08-07T00:43:27;8.15;;;6.15;;
11018;SDS011;5563;52.296;6.806;2023-08-07T00:46:00;8.05;;;6.25;;
11018;SDS011;5563;52.296;6.806;2023-08-07T00:48:34;8.02;;;5.90;;
11018;SDS011;5563;52.296;6.806;2023-08-07T00:51:01;7.22;;;6.53;;
11018;SDS011;5563;52.296;6.806;2023-08-07T00:53:37;7.47;;;5.70;;
11018;SDS011;5563;52.296;6.806;2023-08-07T00:56:05;7.63;;;6.38;;
11018;SDS011;5563;52.296;6.806;2023-08-07T00:58:39;6.43;;;5.82;;
11018;SDS011;5563;52.296;6.806;2023-08-07T01:01:06;6.35;;;5.72;;
11018;SDS011;5563;52.296;6.806;2023-08-07T01:03:40;7.18;;;6.47;;
11018;SDS011;5563;52.296;6.806;2023-08-07T01:06:13;6.10;;;5.50;;
11018;SDS011;5563;52.296;6.806;2023-08-07T01:08:46;7.53;;;6.18;;
11018;SDS011;5563;52.296;6.806;2023-08-07T01:14:06;6.47;;;5.88;;
11018;SDS011;5563;52.296;6.806;2023-08-07T01:16:52;6.80;;;5.50;;
11018;SDS011;5563;52.296;6.806;2023-08-07T01:19:36;5.60;;;4.93;;
11018;SDS011;5563;52.296;6.806;2023-08-07T01:22:10;5.50;;;5.00;;
11018;SDS011;5563;52.296;6.806;2023-08-07T01:24:46;7.13;;;5.30;;
11018;SDS011;5563;52.296;6.806;2023-08-07T01:33:04;7.07;;;5.25;;
11018;SDS011;5563;52.296;6.806;2023-08-07T01:35:51;5.60;;;5.10;;
11018;SDS011;5563;52.296;6.806;2023-08-07T01:38:27;5.63;;;4.57;;
11018;SDS011;5563;52.296;6.806;2023-08-07T01:41:02;6.22;;;4.80;;
11018;SDS011;5563;52.296;6.806;2023-08-07T01:43:30;4.75;;;4.13;;
11018;SDS011;5563;52.296;6.806;2023-08-07T01:46:05;5.43;;;4.38;;
11018;SDS011;5563;52.296;6.806;2023-08-07T01:48:39;6.35;;;4.38;;
11018;SDS011;5563;52.296;6.806;2023-08-07T01:51:12;6.38;;;4.55;;
11018;SDS011;5563;52.296;6.806;2023-08-07T01:53:46;4.43;;;4.00;;
11018;SDS011;5563;52.296;6.806;2023-08-07T01:56:21;4.75;;;3.45;;
11018;SDS011;5563;52.296;6.806;2023-08-07T01:58:48;4.68;;;3.53;;
11018;SDS011;5563;52.296;6.806;2023-08-07T02:01:15;4.55;;;3.88;;
11018;SDS011;5563;52.296;6.806;2023-08-07T02:03:48;7.22;;;3.72;;
11018;SDS011;5563;52.296;6.806;2023-08-07T02:06:15;7.00;;;3.20;;
11018;SDS011;5563;52.296;6.806;2023-08-07T02:08:48;5.07;;;2.80;;
11018;SDS011;5563;52.296;6.806;2023-08-07T02:11:15;5.05;;;3.42;;
11018;SDS011;5563;52.296;6.806;2023-08-07T02:13:49;6.47;;;2.97;;
11018;SDS011;5563;52.296;6.806;2023-08-07T02:16:16;6.97;;;3.28;;
11018;SDS011;5563;52.296;6.806;2023-08-07T02:18:49;6.18;;;3.30;;
11018;SDS011;5563;52.296;6.806;2023-08-07T02:21:22;7.40;;;3.10;;
11018;SDS011;5563;52.296;6.806;2023-08-07T02:23:55;7.07;;;3.25;;
11018;SDS011;5563;52.296;6.806;2023-08-07T02:26:29;8.10;;;3.40;;
11018;SDS011;5563;52.296;6.806;2023-08-07T02:28:56;10.40;;;3.25;;
11018;SDS011;5563;52.296;6.806;2023-08-07T02:31:37;7.60;;;3.60;;
11018;SDS011;5563;52.296;6.806;2023-08-07T02:34:10;7.50;;;3.55;;
11018;SDS011;5563;52.296;6.806;2023-08-07T02:36:37;8.23;;;3.33;;
11018;SDS011;5563;52.296;6.806;2023-08-07T02:39:04;7.45;;;3.67;;
11018;SDS011;5563;52.296;6.806;2023-08-07T02:41:37;6.13;;;3.42;;
11018;SDS011;5563;52.296;6.806;2023-08-07T02:44:04;7.15;;;3.42;;
11018;SDS011;5563;52.296;6.806;2023-08-07T02:46:37;8.45;;;2.85;;
11018;SDS011;5563;52.296;6.806;2023-08-07T02:49:04;5.72;;;3.22;;
11018;SDS011;5563;52.296;6.806;2023-08-07T02:51:38;8.93;;;3.38;;
11018;SDS011;5563;52.296;6.806;2023-08-07T02:54:05;5.93;;;2.60;;
11018;SDS011;5563;52.296;6.806;2023-08-07T02:56:38;8.55;;;2.97;;
11018;SDS011;5563;52.296;6.806;2023-08-07T02:59:05;4.18;;;2.35;;
11018;SDS011;5563;52.296;6.806;2023-08-07T03:01:39;6.75;;;2.80;;
11018;SDS011;5563;52.296;6.806;2023-08-07T03:04:06;8.00;;;2.45;;
11018;SDS011;5563;52.296;6.806;2023-08-07T03:06:39;5.18;;;2.60;;
11018;SDS011;5563;52.296;6.806;2023-08-07T03:09:06;6.57;;;2.25;;
11018;SDS011;5563;52.296;6.806;2023-08-07T03:11:39;7.47;;;2.38;;
11018;SDS011;5563;52.296;6.806;2023-08-07T03:14:12;8.60;;;2.50;;
11018;SDS011;5563;52.296;6.806;2023-08-07T03:16:39;5.13;;;2.05;;
11018;SDS011;5563;52.296;6.806;2023-08-07T03:19:12;7.20;;;2.40;;
11018;SDS011;5563;52.296;6.806;2023-08-07T03:21:39;3.38;;;1.90;;
11018;SDS011;5563;52.296;6.806;2023-08-07T03:24:12;5.25;;;2.10;;
11018;SDS011;5563;52.296;6.806;2023-08-07T03:26:39;3.30;;;2.08;;
11018;SDS011;5563;52.296;6.806;2023-08-07T03:29:19;3.25;;;1.63;;
11018;SDS011;5563;52.296;6.806;2023-08-07T03:32:00;3.45;;;1.77;;
11018;SDS011;5563;52.296;6.806;2023-08-07T03:34:33;3.28;;;1.55;;
11018;SDS011;5563;52.296;6.806;2023-08-07T03:37:00;2.35;;;1.30;;
11018;SDS011;5563;52.296;6.806;2023-08-07T03:39:33;3.20;;;1.73;;
11018;SDS011;5563;52.296;6.806;2023-08-07T03:42:06;3.42;;;1.83;;
11018;SDS011;5563;52.296;6.806;2023-08-07T03:44:33;3.03;;;1.88;;
11018;SDS011;5563;52.296;6.806;2023-08-07T03:47:07;4.43;;;3.20;;
11018;SDS011;5563;52.296;6.806;2023-08-07T03:49:34;7.65;;;3.63;;
11018;SDS011;5563;52.296;6.806;2023-08-07T03:52:07;4.88;;;3.97;;
11018;SDS011;5563;52.296;6.806;2023-08-07T03:54:34;8.02;;;4.68;;
11018;SDS011;5563;52.296;6.806;2023-08-07T03:57:07;8.23;;;4.60;;
11018;SDS011;5563;52.296;6.806;2023-08-07T03:59:34;8.50;;;4.85;;
11018;SDS011;5563;52.296;6.806;2023-08-07T04:02:08;9.52;;;5.68;;
11018;SDS011;5563;52.296;6.806;2023-08-07T04:04:35;9.57;;;6.15;;
11018;SDS011;5563;52.296;6.806;2023-08-07T04:07:08;8.32;;;6.32;;
11018;SDS011;5563;52.296;6.806;2023-08-07T04:09:35;15.10;;;8.75;;
11018;SDS011;5563;52.296;6.806;2023-08-07T04:12:08;12.63;;;7.53;;
11018;SDS011;5563;52.296;6.806;2023-08-07T04:14:42;14.27;;;8.43;;
11018;SDS011;5563;52.296;6.806;2023-08-07T04:17:15;17.40;;;9.27;;
11018;SDS011;5563;52.296;6.806;2023-08-07T04:19:49;14.30;;;8.55;;
11018;SDS011;5563;52.296;6.806;2023-08-07T04:22:22;12.93;;;7.75;;
11018;SDS011;5563;52.296;6.806;2023-08-07T04:24:55;13.52;;;8.38;;
11018;SDS011;5563;52.296;6.806;2023-08-07T04:27:22;10.48;;;7.57;;
11018;SDS011;5563;52.296;6.806;2023-08-07T04:30:01;12.52;;;7.60;;
11018;SDS011;5563;52.296;6.806;2023-08-07T04:32:28;11.55;;;7.60;;
11018;SDS011;5563;52.296;6.806;2023-08-07T04:35:02;10.63;;;7.53;;
11018;SDS011;5563;52.296;6.806;2023-08-07T04:37:29;11.45;;;7.00;;
11018;SDS011;5563;52.296;6.806;2023-08-07T04:40:03;10.98;;;6.97;;
11018;SDS011;5563;52.296;6.806;2023-08-07T04:42:31;14.20;;;7.07;;
11018;SDS011;5563;52.296;6.806;2023-08-07T04:45:05;10.32;;;6.57;;
11018;SDS011;5563;52.296;6.806;2023-08-07T04:47:39;11.35;;;7.03;;
11018;SDS011;5563;52.296;6.806;2023-08-07T04:50:06;14.07;;;6.78;;
11018;SDS011;5563;52.296;6.806;2023-08-07T04:52:41;12.73;;;7.55;;
11018;SDS011;5563;52.296;6.806;2023-08-07T04:55:14;11.32;;;6.57;;
11018;SDS011;5563;52.296;6.806;2023-08-07T04:57:48;10.55;;;6.40;;
11018;SDS011;5563;52.296;6.806;2023-08-07T05:00:17;10.20;;;5.78;;
11018;SDS011;5563;52.296;6.806;2023-08-07T05:02:50;12.60;;;6.35;;
11018;SDS011;5563;52.296;6.806;2023-08-07T05:05:18;9.27;;;5.30;;
11018;SDS011;5563;52.296;6.806;2023-08-07T05:07:54;10.65;;;6.00;;
11018;SDS011;5563;52.296;6.806;2023-08-07T05:10:21;10.73;;;5.55;;
11018;SDS011;5563;52.296;6.806;2023-08-07T05:12:55;8.10;;;5.85;;
11018;SDS011;5563;52.296;6.806;2023-08-07T05:15:22;9.13;;;5.68;;
11018;SDS011;5563;52.296;6.806;2023-08-07T05:17:57;14.25;;;6.55;;
11018;SDS011;5563;52.296;6.806;2023-08-07T05:20:24;14.05;;;5.60;;
11018;SDS011;5563;52.296;6.806;2023-08-07T05:22:58;9.63;;;5.20;;
11018;SDS011;5563;52.296;6.806;2023-08-07T05:25:25;13.73;;;5.53;;
11018;SDS011;5563;52.296;6.806;2023-08-07T05:27:59;11.07;;;5.40;;
11018;SDS011;5563;52.296;6.806;2023-08-07T05:30:38;12.38;;;5.80;;
11018;SDS011;5563;52.296;6.806;2023-08-07T05:33:12;10.88;;;4.80;;
11018;SDS011;5563;52.296;6.806;2023-08-07T05:35:41;7.93;;;4.30;;
11018;SDS011;5563;52.296;6.806;2023-08-07T05:38:14;11.18;;;5.43;;
11018;SDS011;5563;52.296;6.806;2023-08-07T05:40:41;9.65;;;5.22;;
11018;SDS011;5563;52.296;6.806;2023-08-07T05:43:08;12.45;;;5.75;;
11018;SDS011;5563;52.296;6.806;2023-08-07T05:45:42;11.80;;;5.35;;
11018;SDS011;5563;52.296;6.806;2023-08-07T05:48:11;9.30;;;4.95;;
11018;SDS011;5563;52.296;6.806;2023-08-07T05:50:45;10.45;;;5.00;;
11018;SDS011;5563;52.296;6.806;2023-08-07T05:53:12;10.00;;;4.95;;
11018;SDS011;5563;52.296;6.806;2023-08-07T05:55:45;10.48;;;5.07;;
11018;SDS011;5563;52.296;6.806;2023-08-07T05:58:12;7.60;;;4.22;;
11018;SDS011;5563;52.296;6.806;2023-08-07T06:00:45;11.98;;;4.50;;
11018;SDS011;5563;52.296;6.806;2023-08-07T06:03:12;8.45;;;4.40;;
11018;SDS011;5563;52.296;6.806;2023-08-07T06:05:46;11.85;;;4.45;;
11018;SDS011;5563;52.296;6.806;2023-08-07T06:08:13;11.05;;;4.22;;
11018;SDS011;5563;52.296;6.806;2023-08-07T06:10:39;13.15;;;4.55;;
11018;SDS011;5563;52.296;6.806;2023-08-07T06:13:13;10.48;;;4.70;;
11018;SDS011;5563;52.296;6.806;2023-08-07T06:15:59;11.57;;;5.00;;
11018;SDS011;5563;52.296;6.806;2023-08-07T06:18:33;11.35;;;4.88;;
11018;SDS011;5563;52.296;6.806;2023-08-07T06:21:00;9.48;;;4.00;;
11018;SDS011;5563;52.296;6.806;2023-08-07T06:23:34;9.20;;;4.60;;
11018;SDS011;5563;52.296;6.806;2023-08-07T06:26:01;8.88;;;4.38;;
11018;SDS011;5563;52.296;6.806;2023-08-07T06:28:37;9.27;;;3.85;;
11018;SDS011;5563;52.296;6.806;2023-08-07T06:31:18;9.20;;;3.83;;
11018;SDS011;5563;52.296;6.806;2023-08-07T06:33:51;9.90;;;4.13;;
11018;SDS011;5563;52.296;6.806;2023-08-07T06:36:18;6.93;;;4.03;;
11018;SDS011;5563;52.296;6.806;2023-08-07T06:38:51;10.25;;;4.75;;
11018;SDS011;5563;52.296;6.806;2023-08-07T06:41:18;9.80;;;4.22;;
11018;SDS011;5563;52.296;6.806;2023-08-07T06:43:51;5.97;;;3.90;;
11018;SDS011;5563;52.296;6.806;2023-08-07T06:46:24;8.15;;;4.03;;
11018;SDS011;5563;52.296;6.806;2023-08-07T06:48:53;12.40;;;4.80;;
11018;SDS011;5563;52.296;6.806;2023-08-07T06:51:26;7.65;;;3.70;;
11018;SDS011;5563;52.296;6.806;2023-08-07T06:53:53;12.25;;;4.15;;
11018;SDS011;5563;52.296;6.806;2023-08-07T06:56:26;11.88;;;4.20;;
11018;SDS011;5563;52.296;6.806;2023-08-07T06:58:53;14.32;;;8.82;;
11018;SDS011;5563;52.296;6.806;2023-08-07T07:01:26;12.27;;;8.13;;
11018;SDS011;5563;52.296;6.806;2023-08-07T07:03:53;10.55;;;4.63;;
11018;SDS011;5563;52.296;6.806;2023-08-07T07:06:26;12.48;;;5.50;;
11018;SDS011;5563;52.296;6.806;2023-08-07T07:08:53;11.73;;;4.30;;
11018;SDS011;5563;52.296;6.806;2023-08-07T07:11:29;15.98;;;6.13;;
11018;SDS011;5563;52.296;6.806;2023-08-07T07:13:56;13.25;;;4.60;;
11018;SDS011;5563;52.296;6.806;2023-08-07T07:16:29;11.50;;;4.18;;
11018;SDS011;5563;52.296;6.806;2023-08-07T07:18:56;12.85;;;3.92;;
11018;SDS011;5563;52.296;6.806;2023-08-07T07:21:31;11.68;;;4.05;;
11018;SDS011;5563;52.296;6.806;2023-08-07T07:23:58;13.45;;;8.63;;
11018;SDS011;5563;52.296;6.806;2023-08-07T07:26:32;9.73;;;4.43;;
11018;SDS011;5563;52.296;6.806;2023-08-07T07:29:05;6.88;;;3.90;;
11018;SDS011;5563;52.296;6.806;2023-08-07T07:31:38;11.98;;;3.92;;
11018;SDS011;5563;52.296;6.806;2023-08-07T07:34:11;10.50;;;4.30;;
11018;SDS011;5563;52.296;6.806;2023-08-07T07:36:45;8.98;;;3.63;;
11018;SDS011;5563;52.296;6.806;2023-08-07T07:39:18;7.68;;;4.18;;
11018;SDS011;5563;52.296;6.806;2023-08-07T07:41:45;11.85;;;3.67;;
11018;SDS011;5563;52.296;6.806;2023-08-07T07:44:18;8.25;;;3.80;;
11018;SDS011;5563;52.296;6.806;2023-08-07T07:46:45;11.43;;;3.95;;
11018;SDS011;5563;52.296;6.806;2023-08-07T07:49:18;9.65;;;3.92;;
11018;SDS011;5563;52.296;6.806;2023-08-07T07:51:51;9.45;;;4.05;;
11018;SDS011;5563;52.296;6.806;2023-08-07T07:54:20;8.38;;;4.03;;
11018;SDS011;5563;52.296;6.806;2023-08-07T07:56:54;8.45;;;4.13;;
11018;SDS011;5563;52.296;6.806;2023-08-07T07:59:27;11.20;;;4.30;;
11018;SDS011;5563;52.296;6.806;2023-08-07T08:01:54;12.02;;;4.05;;
11018;SDS011;5563;52.296;6.806;2023-08-07T08:04:27;18.35;;;10.13;;
11018;SDS011;5563;52.296;6.806;2023-08-07T08:07:00;17.55;;;10.30;;
11018;SDS011;5563;52.296;6.806;2023-08-07T08:09:27;10.23;;;4.00;;
11018;SDS011;5563;52.296;6.806;2023-08-07T08:12:01;10.40;;;4.15;;
11018;SDS011;5563;52.296;6.806;2023-08-07T08:14:28;11.02;;;4.03;;
11018;SDS011;5563;52.296;6.806;2023-08-07T08:17:19;10.68;;;4.40;;
11018;SDS011;5563;52.296;6.806;2023-08-07T08:19:46;9.48;;;3.92;;
11018;SDS011;5563;52.296;6.806;2023-08-07T08:22:20;13.30;;;4.10;;
11018;SDS011;5563;52.296;6.806;2023-08-07T08:24:47;10.55;;;4.45;;
11018;SDS011;5563;52.296;6.806;2023-08-07T08:27:14;12.38;;;4.28;;
11018;SDS011;5563;52.296;6.806;2023-08-07T08:29:55;8.68;;;3.63;;
11018;SDS011;5563;52.296;6.806;2023-08-07T08:32:28;8.02;;;3.40;;
11018;SDS011;5563;52.296;6.806;2023-08-07T08:35:01;5.85;;;3.05;;
11018;SDS011;5563;52.296;6.806;2023-08-07T08:37:35;4.95;;;2.50;;
11018;SDS011;5563;52.296;6.806;2023-08-07T08:40:08;6.57;;;2.72;;
11018;SDS011;5563;52.296;6.806;2023-08-07T08:42:45;9.70;;;3.40;;
11018;SDS011;5563;52.296;6.806;2023-08-07T08:45:19;7.95;;;3.08;;
11018;SDS011;5563;52.296;6.806;2023-08-07T08:47:48;6.00;;;3.45;;
11018;SDS011;5563;52.296;6.806;2023-08-07T08:50:24;6.90;;;3.53;;
11018;SDS011;5563;52.296;6.806;2023-08-07T08:52:53;7.85;;;3.70;;
11018;SDS011;5563;52.296;6.806;2023-08-07T08:55:28;9.90;;;3.55;;
11018;SDS011;5563;52.296;6.806;2023-08-07T08:58:03;13.32;;;6.53;;
11018;SDS011;5563;52.296;6.806;2023-08-07T09:00:31;21.25;;;14.95;;
11018;SDS011;5563;52.296;6.806;2023-08-07T09:03:05;5.53;;;3.35;;
11018;SDS011;5563;52.296;6.806;2023-08-07T09:05:39;11.10;;;3.97;;
11018;SDS011;5563;52.296;6.806;2023-08-07T09:08:08;10.40;;;3.75;;
11018;SDS011;5563;52.296;6.806;2023-08-07T09:10:42;9.27;;;3.47;;
11018;SDS011;5563;52.296;6.806;2023-08-07T09:13:16;10.60;;;3.55;;
11018;SDS011;5563;52.296;6.806;2023-08-07T09:15:54;16.40;;;10.07;;
11018;SDS011;5563;52.296;6.806;2023-08-07T09:18:25;12.32;;;3.70;;
11018;SDS011;5563;52.296;6.806;2023-08-07T09:20:59;5.05;;;2.95;;
11018;SDS011;5563;52.296;6.806;2023-08-07T09:23:33;7.55;;;3.28;;
11018;SDS011;5563;52.296;6.806;2023-08-07T09:26:06;5.95;;;2.90;;
11018;SDS011;5563;52.296;6.806;2023-08-07T09:28:53;7.63;;;3.30;;
11018;SDS011;5563;52.296;6.806;2023-08-07T09:31:26;6.22;;;2.88;;
11018;SDS011;5563;52.296;6.806;2023-08-07T09:34:03;6.18;;;3.33;;
11018;SDS011;5563;52.296;6.806;2023-08-07T09:36:31;6.53;;;3.42;;
11018;SDS011;5563;52.296;6.806;2023-08-07T09:39:06;6.65;;;3.63;;
11018;SDS011;5563;52.296;6.806;2023-08-07T09:41:39;7.32;;;3.60;;
11018;SDS011;5563;52.296;6.806;2023-08-07T09:44:12;7.20;;;3.47;;
11018;SDS011;5563;52.296;6.806;2023-08-07T09:46:42;7.35;;;3.45;;
11018;SDS011;5563;52.296;6.806;2023-08-07T09:49:18;7.32;;;3.78;;
11018;SDS011;5563;52.296;6.806;2023-08-07T09:51:46;8.27;;;3.85;;
11018;SDS011;5563;52.296;6.806;2023-08-07T09:54:23;6.97;;;3.80;;
11018;SDS011;5563;52.296;6.806;2023-08-07T09:56:50;7.03;;;3.10;;
11018;SDS011;5563;52.296;6.806;2023-08-07T09:59:29;7.45;;;3.60;;
11018;SDS011;5563;52.296;6.806;2023-08-07T10:01:56;6.85;;;3.10;;
11018;SDS011;5563;52.296;6.806;2023-08-07T10:04:30;7.05;;;2.85;;
11018;SDS011;5563;52.296;6.806;2023-08-07T10:06:57;5.57;;;2.47;;
11018;SDS011;5563;52.296;6.806;2023-08-07T10:09:31;5.43;;;2.90;;
11018;SDS011;5563;52.296;6.806;2023-08-07T10:12:05;8.88;;;2.92;;
11018;SDS011;5563;52.296;6.806;2023-08-07T10:14:39;8.13;;;2.97;;
11018;SDS011;5563;52.296;6.806;2023-08-07T10:17:08;5.55;;;2.83;;
11018;SDS011;5563;52.296;6.806;2023-08-07T10:19:43;4.65;;;2.70;;
11018;SDS011;5563;52.296;6.806;2023-08-07T10:22:23;6.00;;;2.70;;
11018;SDS011;5563;52.296;6.806;2023-08-07T10:24:53;6.03;;;2.80;;
11018;SDS011;5563;52.296;6.806;2023-08-07T10:27:32;7.53;;;2.85;;
11018;SDS011;5563;52.296;6.806;2023-08-07T10:30:04;5.20;;;2.33;;
11018;SDS011;5563;52.296;6.806;2023-08-07T10:32:54;4.60;;;3.33;;
11018;SDS011;5563;52.296;6.806;2023-08-07T10:36:05;9.43;;;6.07;;
11018;SDS011;5563;52.296;6.806;2023-08-07T10:38:22;7.28;;;2.65;;
11018;SDS011;5563;52.296;6.806;2023-08-07T10:41:06;5.05;;;2.28;;
11018;SDS011;5563;52.296;6.806;2023-08-07T10:43:45;4.03;;;2.13;;
11018;SDS011;5563;52.296;6.806;2023-08-07T10:46:15;4.38;;;2.10;;
11018;SDS011;5563;52.296;6.806;2023-08-07T10:48:54;9.25;;;6.75;;
11018;SDS011;5563;52.296;6.806;2023-08-07T10:51:30;8.10;;;4.32;;
11018;SDS011;5563;52.296;6.806;2023-08-07T10:54:04;6.00;;;2.45;;
11018;SDS011;5563;52.296;6.806;2023-08-07T10:56:35;8.52;;;2.20;;
11018;SDS011;5563;52.296;6.806;2023-08-07T10:59:13;6.38;;;3.15;;
11018;SDS011;5563;52.296;6.806;2023-08-07T11:01:41;4.63;;;2.22;;
11018;SDS011;5563;52.296;6.806;2023-08-07T11:04:15;8.27;;;2.83;;
11018;SDS011;5563;52.296;6.806;2023-08-07T11:06:43;7.18;;;3.22;;
11018;SDS011;5563;52.296;6.806;2023-08-07T11:09:22;7.35;;;2.55;;
11018;SDS011;5563;52.296;6.806;2023-08-07T11:11:48;6.43;;;2.60;;
11018;SDS011;5563;52.296;6.806;2023-08-07T11:14:22;5.85;;;2.40;;
11018;SDS011;5563;52.296;6.806;2023-08-07T11:16:49;7.47;;;2.53;;
11018;SDS011;5563;52.296;6.806;2023-08-07T11:19:23;7.63;;;2.53;;
11018;SDS011;5563;52.296;6.806;2023-08-07T11:21:49;5.60;;;2.47;;
11018;SDS011;5563;52.296;6.806;2023-08-07T11:24:23;7.20;;;2.55;;
11018;SDS011;5563;52.296;6.806;2023-08-07T11:27:00;5.15;;;2.20;;
11018;SDS011;5563;52.296;6.806;2023-08-07T11:29:33;4.93;;;2.50;;
11018;SDS011;5563;52.296;6.806;2023-08-07T11:32:08;4.30;;;2.10;;
11018;SDS011;5563;52.296;6.806;2023-08-07T11:34:46;7.72;;;2.25;;
11018;SDS011;5563;52.296;6.806;2023-08-07T11:37:21;6.60;;;2.50;;
11018;SDS011;5563;52.296;6.806;2023-08-07T11:39:48;7.65;;;2.72;;
11018;SDS011;5563;52.296;6.806;2023-08-07T11:42:21;3.85;;;2.30;;
11018;SDS011;5563;52.296;6.806;2023-08-07T11:44:49;3.90;;;2.15;;
11018;SDS011;5563;52.296;6.806;2023-08-07T11:47:22;4.10;;;2.60;;
11018;SDS011;5563;52.296;6.806;2023-08-07T11:49:50;4.53;;;2.45;;
11018;SDS011;5563;52.296;6.806;2023-08-07T11:52:25;7.38;;;2.55;;
11018;SDS011;5563;52.296;6.806;2023-08-07T11:54:52;6.38;;;2.35;;
11018;SDS011;5563;52.296;6.806;2023-08-07T11:57:26;4.53;;;3.25;;
11018;SDS011;5563;52.296;6.806;2023-08-07T11:59:53;5.22;;;2.40;;
11018;SDS011;5563;52.296;6.806;2023-08-07T12:02:26;5.72;;;2.67;;
11018;SDS011;5563;52.296;6.806;2023-08-07T12:04:57;5.57;;;2.30;;
11018;SDS011;5563;52.296;6.806;2023-08-07T12:07:31;6.28;;;2.70;;
11018;SDS011;5563;52.296;6.806;2023-08-07T12:09:59;5.22;;;2.47;;
11018;SDS011;5563;52.296;6.806;2023-08-07T12:12:31;4.35;;;2.42;;
11018;SDS011;5563;52.296;6.806;2023-08-07T12:15:08;7.78;;;2.60;;
11018;SDS011;5563;52.296;6.806;2023-08-07T12:17:42;3.30;;;2.40;;
11018;SDS011;5563;52.296;6.806;2023-08-07T12:20:15;4.28;;;2.45;;
11018;SDS011;5563;52.296;6.806;2023-08-07T12:22:43;7.75;;;5.32;;
11018;SDS011;5563;52.296;6.806;2023-08-07T12:25:20;6.85;;;2.92;;
11018;SDS011;5563;52.296;6.806;2023-08-07T12:27:47;6.47;;;3.00;;
11018;SDS011;5563;52.296;6.806;2023-08-07T12:30:21;5.45;;;2.38;;
11018;SDS011;5563;52.296;6.806;2023-08-07T12:33:02;6.38;;;2.78;;
11018;SDS011;5563;52.296;6.806;2023-08-07T12:35:39;5.82;;;2.70;;
11018;SDS011;5563;52.296;6.806;2023-08-07T12:38:06;5.80;;;2.50;;
11018;SDS011;5563;52.296;6.806;2023-08-07T12:40:42;3.03;;;2.03;;
11018;SDS011;5563;52.296;6.806;2023-08-07T12:43:10;4.78;;;2.10;;
11018;SDS011;5563;52.296;6.806;2023-08-07T12:45:37;5.43;;;2.88;;
11018;SDS011;5563;52.296;6.806;2023-08-07T12:48:13;7.22;;;2.42;;
11018;SDS011;5563;52.296;6.806;2023-08-07T12:50:40;4.00;;;2.10;;
11018;SDS011;5563;52.296;6.806;2023-08-07T12:53:13;4.50;;;2.10;;
11018;SDS011;5563;52.296;6.806;2023-08-07T12:55:40;4.63;;;2.17;;
11018;SDS011;5563;52.296;6.806;2023-08-07T12:58:13;5.35;;;1.92;;
11018;SDS011;5563;52.296;6.806;2023-08-07T13:00:48;3.97;;;1.80;;
11018;SDS011;5563;52.296;6.806;2023-08-07T13:03:21;4.85;;;2.00;;
11018;SDS011;5563;52.296;6.806;2023-08-07T13:05:48;4.93;;;1.90;;
11018;SDS011;5563;52.296;6.806;2023-08-07T13:08:21;5.88;;;2.42;;
11018;SDS011;5563;52.296;6.806;2023-08-07T13:10:48;7.13;;;2.00;;
11018;SDS011;5563;52.296;6.806;2023-08-07T13:13:21;2.75;;;1.80;;
11018;SDS011;5563;52.296;6.806;2023-08-07T13:15:48;4.30;;;2.00;;
11018;SDS011;5563;52.296;6.806;2023-08-07T13:18:21;4.40;;;2.60;;
11018;SDS011;5563;52.296;6.806;2023-08-07T13:20:49;6.85;;;2.33;;
11018;SDS011;5563;52.296;6.806;2023-08-07T13:23:22;3.47;;;1.90;;
11018;SDS011;5563;52.296;6.806;2023-08-07T13:25:49;5.15;;;2.22;;
11018;SDS011;5563;52.296;6.806;2023-08-07T13:28:22;5.15;;;1.98;;
11018;SDS011;5563;52.296;6.806;2023-08-07T13:30:49;4.80;;;2.10;;
11018;SDS011;5563;52.296;6.806;2023-08-07T13:33:31;4.38;;;2.20;;
11018;SDS011;5563;52.296;6.806;2023-08-07T13:36:05;3.85;;;1.90;;
11018;SDS011;5563;52.296;6.806;2023-08-07T13:38:32;4.32;;;1.88;;
11018;SDS011;5563;52.296;6.806;2023-08-07T13:41:06;3.20;;;2.00;;
11018;SDS011;5563;52.296;6.806;2023-08-07T13:43:34;2.38;;;1.80;;
11018;SDS011;5563;52.296;6.806;2023-08-07T13:46:07;2.72;;;1.75;;
11018;SDS011;5563;52.296;6.806;2023-08-07T13:48:34;4.38;;;2.10;;
11018;SDS011;5563;52.296;6.806;2023-08-07T13:51:07;3.97;;;2.03;;
11018;SDS011;5563;52.296;6.806;2023-08-07T13:53:34;3.85;;;1.90;;
11018;SDS011;5563;52.296;6.806;2023-08-07T13:56:08;4.78;;;2.25;;
11018;SDS011;5563;52.296;6.806;2023-08-07T13:58:40;4.38;;;1.95;;
11018;SDS011;5563;52.296;6.806;2023-08-07T14:01:15;4.90;;;1.95;;
11018;SDS011;5563;52.296;6.806;2023-08-07T14:03:42;3.22;;;1.90;;
11018;SDS011;5563;52.296;6.806;2023-08-07T14:06:15;5.82;;;2.10;;
11018;SDS011;5563;52.296;6.806;2023-08-07T14:08:48;5.60;;;2.08;;
11018;SDS011;5563;52.296;6.806;2023-08-07T14:11:21;3.42;;;1.75;;
11018;SDS011;5563;52.296;6.806;2023-08-07T14:13:57;4.65;;;1.75;;
11018;SDS011;5563;52.296;6.806;2023-08-07T14:16:27;4.65;;;1.90;;
11018;SDS011;5563;52.296;6.806;2023-08-07T14:19:02;3.10;;;1.92;;
11018;SDS011;5563;52.296;6.806;2023-08-07T14:21:36;3.63;;;2.00;;
11018;SDS011;5563;52.296;6.806;2023-08-07T14:24:09;3.38;;;2.08;;
11018;SDS011;5563;52.296;6.806;2023-08-07T14:26:36;4.35;;;1.80;;
11018;SDS011;5563;52.296;6.806;2023-08-07T14:29:16;4.85;;;2.13;;
11018;SDS011;5563;52.296;6.806;2023-08-07T14:31:56;5.55;;;2.47;;
11018;SDS011;5563;52.296;6.806;2023-08-07T14:34:29;4.68;;;2.17;;
11018;SDS011;5563;52.296;6.806;2023-08-07T14:36:56;6.00;;;1.98;;
11018;SDS011;5563;52.296;6.806;2023-08-07T14:39:29;2.67;;;1.90;;
11018;SDS011;5563;52.296;6.806;2023-08-07T14:41:56;4.00;;;2.33;;
11018;SDS011;5563;52.296;6.806;2023-08-07T14:44:29;5.97;;;2.70;;
11018;SDS011;5563;52.296;6.806;2023-08-07T14:46:56;3.72;;;2.10;;
11018;SDS011;5563;52.296;6.806;2023-08-07T14:49:29;3.13;;;1.73;;
11018;SDS011;5563;52.296;6.806;2023-08-07T14:51:56;2.75;;;1.75;;
11018;SDS011;5563;52.296;6.806;2023-08-07T14:54:29;3.22;;;1.92;;
11018;SDS011;5563;52.296;6.806;2023-08-07T14:57:02;3.67;;;1.90;;
11018;SDS011;5563;52.296;6.806;2023-08-07T14:59:30;2.67;;;2.03;;
11018;SDS011;5563;52.296;6.806;2023-08-07T15:02:03;5.35;;;2.15;;
11018;SDS011;5563;52.296;6.806;2023-08-07T15:04:31;3.28;;;1.83;;
11018;SDS011;5563;52.296;6.806;2023-08-07T15:07:04;3.00;;;2.15;;
11018;SDS011;5563;52.296;6.806;2023-08-07T15:09:31;3.92;;;2.00;;
11018;SDS011;5563;52.296;6.806;2023-08-07T15:12:05;4.93;;;1.92;;
11018;SDS011;5563;52.296;6.806;2023-08-07T15:14:33;3.58;;;1.80;;
11018;SDS011;5563;52.296;6.806;2023-08-07T15:17:06;5.68;;;3.70;;
11018;SDS011;5563;52.296;6.806;2023-08-07T15:19:33;4.72;;;2.30;;
11018;SDS011;5563;52.296;6.806;2023-08-07T15:22:06;2.83;;;1.80;;
11018;SDS011;5563;52.296;6.806;2023-08-07T15:24:34;4.00;;;1.70;;
11018;SDS011;5563;52.296;6.806;2023-08-07T15:27:07;3.50;;;1.98;;
11018;SDS011;5563;52.296;6.806;2023-08-07T15:29:47;3.53;;;2.05;;
11018;SDS011;5563;52.296;6.806;2023-08-07T15:32:20;4.68;;;2.17;;
11018;SDS011;5563;52.296;6.806;2023-08-07T15:34:47;3.30;;;1.73;;